sensor_id;sensor_type;location;lat;lon;timestamp;pressure;altitude;pressure_sealevel;temperature;humidity
31096;BME280;17749;51.962;8.560;2023-08-06T05:00:49;98969.34;;;14.10;100.00
31096;BME280;17749;51.962;8.560;2023-08-06T05:03:17;98960.69;;;14.07;100.00
31096;BME280;17749;51.962;8.560;2023-08-06T05:05:46;98965.84;;;14.10;100.00
31096;BME280;17749;51.962;8.560;2023-08-06T05:08:16;98960.91;;;14.03;100.00
31096;BME280;17749;51.962;8.560;2023-08-06T05:10:46;98959.41;;;14.12;100.00
31096;BME280;17749;51.962;8.560;2023-08-06T05:13:13;98965.16;;;14.19;100.00
31096;BME280;17749;51.962;8.560;2023-08-06T05:15:43;98954.72;;;14.27;100.00
31096;BME280;17749;51.962;8.560;2023-08-06T05:18:13;98959.09;;;14.41;100.00
31096;BME280;17749;51.962;8.560;2023-08-06T05:20:54;98970.94;;;14.50;100.00
31096;BME280;17749;51.962;8.560;2023-08-06T05:23:22;98968.25;;;14.50;100.00
31096;BME280;17749;51.962;8.560;2023-08-06T05:25:50;98976.84;;;14.55;100.00
31096;BME280;17749;51.962;8.560;2023-08-06T05:28:31;98954.56;;;14.54;100.00
31096;BME280;17749;51.962;8.560;2023-08-06T05:31:03;98966.13;;;14.55;100.00
31096;BME280;17749;51.962;8.560;2023-08-06T05:33:32;98966.63;;;14.60;100.00
31096;BME280;17749;51.962;8.560;2023-08-06T05:36:11;98972.59;;;14.63;100.00
31096;BME280;17749;51.962;8.560;2023-08-06T05:38:38;98967.16;;;14.65;100.00
31096;BME280;17749;51.962;8.560;2023-08-06T05:41:19;98973.72;;;14.72;100.00
31096;BME280;17749;51.962;8.560;2023-08-06T05:43:46;98968.03;;;14.77;100.00
31096;BME280;17749;51.962;8.560;2023-08-06T05:46:13;98969.84;;;14.76;100.00
31096;BME280;17749;51.962;8.560;2023-08-06T05:48:40;98972.63;;;14.75;100.00
31096;BME280;17749;51.962;8.560;2023-08-06T05:51:07;98966.19;;;14.77;100.00
31096;BME280;17749;51.962;8.560;2023-08-06T05:53:34;98970.03;;;14.86;100.00
31096;BME280;17749;51.962;8.560;2023-08-06T05:56:01;98966.53;;;14.97;100.00
31096;BME280;17749;51.962;8.560;2023-08-06T05:58:28;98967.53;;;15.07;100.00
31096;BME280;17749;51.962;8.560;2023-08-06T06:00:57;98951.72;;;15.15;100.00
31096;BME280;17749;51.962;8.560;2023-08-06T06:03:24;98961.50;;;15.27;100.00
31096;BME280;17749;51.962;8.560;2023-08-06T06:05:51;98963.69;;;15.33;100.00
31096;BME280;17749;51.962;8.560;2023-08-06T06:08:18;98958.81;;;15.50;100.00
31096;BME280;17749;51.962;8.560;2023-08-06T06:10:45;98968.34;;;15.65;100.00
31096;BME280;17749;51.962;8.560;2023-08-06T06:13:12;98958.88;;;15.72;100.00
31096;BME280;17749;51.962;8.560;2023-08-06T06:15:39;98956.69;;;15.77;100.00
31096;BME280;17749;51.962;8.560;2023-08-06T06:18:06;98969.59;;;15.95;100.00
31096;BME280;17749;51.962;8.560;2023-08-06T06:20:33;98961.28;;;16.09;100.00
31096;BME280;17749;51.962;8.560;2023-08-06T06:23:00;98963.94;;;16.20;100.00
31096;BME280;17749;51.962;8.560;2023-08-06T06:25:27;98961.97;;;16.34;100.00
31096;BME280;17749;51.962;8.560;2023-08-06T06:27:54;98958.53;;;16.43;100.00
31096;BME280;17749;51.962;8.560;2023-08-06T06:30:21;98961.94;;;16.45;100.00
31096;BME280;17749;51.962;8.560;2023-08-06T06:32:48;98953.38;;;16.51;100.00
31096;BME280;17749;51.962;8.560;2023-08-06T06:35:16;98954.78;;;16.67;100.00
31096;BME280;17749;51.962;8.560;2023-08-06T06:37:42;98953.41;;;16.83;100.00
31096;BME280;17749;51.962;8.560;2023-08-06T06:40:10;98955.91;;;16.96;100.00
31096;BME280;17749;51.962;8.560;2023-08-06T06:42:37;98955.91;;;16.96;100.00
31096;BME280;17749;51.962;8.560;2023-08-06T06:45:07;98951.75;;;16.92;100.00
31096;BME280;17749;51.962;8.560;2023-08-06T06:47:33;98953.28;;;17.06;100.00
31096;BME280;17749;51.962;8.560;2023-08-06T06:50:01;98944.22;;;17.28;100.00
31096;BME280;17749;51.962;8.560;2023-08-06T06:52:28;98945.13;;;17.38;100.00
31096;BME280;17749;51.962;8.560;2023-08-06T06:54:55;98942.25;;;17.51;100.00
31096;BME280;17749;51.962;8.560;2023-08-06T06:57:22;98949.09;;;17.65;100.00
31096;BME280;17749;51.962;8.560;2023-08-06T06:59:48;98953.41;;;17.77;100.00
31096;BME280;17749;51.962;8.560;2023-08-06T07:02:16;98939.16;;;17.86;100.00
31096;BME280;17749;51.962;8.560;2023-08-06T07:04:42;98942.28;;;17.91;100.00
31096;BME280;17749;51.962;8.560;2023-08-06T07:07:09;98936.97;;;18.11;100.00
31096;BME280;17749;51.962;8.560;2023-08-06T07:09:37;98937.06;;;18.69;100.00
31096;BME280;17749;51.962;8.560;2023-08-06T07:12:04;98928.00;;;18.99;100.00
31096;BME280;17749;51.962;8.560;2023-08-06T07:14:31;98926.84;;;19.02;100.00
31096;BME280;17749;51.962;8.560;2023-08-06T07:16:58;98926.53;;;19.15;100.00
31096;BME280;17749;51.962;8.560;2023-08-06T07:19:25;98934.69;;;19.52;100.00
31096;BME280;17749;51.962;8.560;2023-08-06T07:21:52;98924.56;;;19.74;100.00
31096;BME280;17749;51.962;8.560;2023-08-06T07:24:23;98920.03;;;20.02;100.00
31096;BME280;17749;51.962;8.560;2023-08-06T07:26:50;98916.03;;;19.96;100.00
31096;BME280;17749;51.962;8.560;2023-08-06T07:29:18;98917.16;;;19.76;100.00
31096;BME280;17749;51.962;8.560;2023-08-06T07:31:48;98916.47;;;19.54;100.00
31096;BME280;17749;51.962;8.560;2023-08-06T07:34:16;98923.41;;;19.29;100.00
31096;BME280;17749;51.962;8.560;2023-08-06T07:36:44;98917.34;;;19.55;100.00
31096;BME280;17749;51.962;8.560;2023-08-06T07:39:12;98918.66;;;20.16;100.00
31096;BME280;17749;51.962;8.560;2023-08-06T07:41:39;98914.84;;;20.90;100.00
31096;BME280;17749;51.962;8.560;2023-08-06T07:44:07;98920.66;;;21.65;100.00
31096;BME280;17749;51.962;8.560;2023-08-06T07:46:34;98924.34;;;21.64;100.00
31096;BME280;17749;51.962;8.560;2023-08-06T07:49:01;98915.59;;;21.70;100.00
31096;BME280;17749;51.962;8.560;2023-08-06T07:51:28;98913.81;;;22.29;100.00
31096;BME280;17749;51.962;8.560;2023-08-06T07:53:55;98907.13;;;22.74;100.00
31096;BME280;17749;51.962;8.560;2023-08-06T07:56:22;98915.94;;;22.85;100.00
31096;BME280;17749;51.962;8.560;2023-08-06T07:58:52;98902.34;;;22.76;100.00
31096;BME280;17749;51.962;8.560;2023-08-06T08:01:20;98900.63;;;22.43;100.00
31096;BME280;17749;51.962;8.560;2023-08-06T08:03:47;98903.88;;;22.04;100.00
31096;BME280;17749;51.962;8.560;2023-08-06T08:06:15;98908.13;;;22.65;100.00
31096;BME280;17749;51.962;8.560;2023-08-06T08:08:42;98903.56;;;23.15;100.00
31096;BME280;17749;51.962;8.560;2023-08-06T08:11:09;98901.34;;;22.86;100.00
31096;BME280;17749;51.962;8.560;2023-08-06T08:13:38;98907.63;;;22.62;100.00
31096;BME280;17749;51.962;8.560;2023-08-06T08:16:06;98907.75;;;22.60;100.00
31096;BME280;17749;51.962;8.560;2023-08-06T08:18:33;98904.06;;;22.61;100.00
31096;BME280;17749;51.962;8.560;2023-08-06T08:21:01;98897.44;;;22.05;100.00
31096;BME280;17749;51.962;8.560;2023-08-06T08:23:28;98904.44;;;21.73;100.00
31096;BME280;17749;51.962;8.560;2023-08-06T08:26:00;98900.78;;;21.91;100.00
31096;BME280;17749;51.962;8.560;2023-08-06T08:28:30;98907.25;;;22.06;100.00
31096;BME280;17749;51.962;8.560;2023-08-06T08:30:57;98908.16;;;22.15;100.00
31096;BME280;17749;51.962;8.560;2023-08-06T08:33:24;98906.03;;;22.35;100.00
31096;BME280;17749;51.962;8.560;2023-08-06T08:35:51;98896.91;;;22.44;100.00
31096;BME280;17749;51.962;8.560;2023-08-06T08:38:18;98898.66;;;23.02;100.00
31096;BME280;17749;51.962;8.560;2023-08-06T08:40:51;98892.50;;;23.33;100.00
31096;BME280;17749;51.962;8.560;2023-08-06T08:43:21;98893.88;;;22.96;100.00
31096;BME280;17749;51.962;8.560;2023-08-06T08:45:50;98886.78;;;23.19;100.00
31096;BME280;17749;51.962;8.560;2023-08-06T08:48:18;98888.47;;;22.80;100.00
31096;BME280;17749;51.962;8.560;2023-08-06T08:50:48;98888.06;;;22.42;100.00
31096;BME280;17749;51.962;8.560;2023-08-06T08:53:16;98904.16;;;22.27;100.00
31096;BME280;17749;51.962;8.560;2023-08-06T08:55:47;98902.94;;;22.29;100.00
31096;BME280;17749;51.962;8.560;2023-08-06T08:58:15;98903.28;;;22.26;100.00
31096;BME280;17749;51.962;8.560;2023-08-06T09:00:45;98890.50;;;22.78;100.00
31096;BME280;17749;51.962;8.560;2023-08-06T09:03:13;98886.94;;;23.10;100.00
31096;BME280;17749;51.962;8.560;2023-08-06T09:05:43;98896.25;;;22.83;100.00
31096;BME280;17749;51.962;8.560;2023-08-06T09:08:17;98895.56;;;22.56;100.00
31096;BME280;17749;51.962;8.560;2023-08-06T09:10:48;98894.53;;;22.41;100.00
31096;BME280;17749;51.962;8.560;2023-08-06T09:13:16;98894.06;;;22.11;100.00
31096;BME280;17749;51.962;8.560;2023-08-06T09:15:44;98897.34;;;21.80;100.00
31096;BME280;17749;51.962;8.560;2023-08-06T09:18:12;98895.28;;;21.40;100.00
31096;BME280;17749;51.962;8.560;2023-08-06T09:20:40;98895.03;;;21.33;100.00
31096;BME280;17749;51.962;8.560;2023-08-06T09:23:08;98893.28;;;21.24;100.00
31096;BME280;17749;51.962;8.560;2023-08-06T09:25:40;98895.13;;;20.97;100.00
31096;BME280;17749;51.962;8.560;2023-08-06T09:28:08;98896.38;;;20.85;100.00
31096;BME280;17749;51.962;8.560;2023-08-06T09:30:36;98889.72;;;20.97;100.00
31096;BME280;17749;51.962;8.560;2023-08-06T09:33:10;98895.56;;;21.11;100.00
31096;BME280;17749;51.962;8.560;2023-08-06T09:35:38;98891.59;;;20.79;100.00
31096;BME280;17749;51.962;8.560;2023-08-06T09:38:10;98892.22;;;20.73;100.00
31096;BME280;17749;51.962;8.560;2023-08-06T09:40:39;98889.13;;;20.68;100.00
31096;BME280;17749;51.962;8.560;2023-08-06T09:43:07;98889.28;;;20.84;100.00
31096;BME280;17749;51.962;8.560;2023-08-06T09:45:38;98893.44;;;20.96;100.00
31096;BME280;17749;51.962;8.560;2023-08-06T09:48:07;98891.25;;;21.44;100.00
31096;BME280;17749;51.962;8.560;2023-08-06T09:50:36;98882.63;;;21.22;100.00
31096;BME280;17749;51.962;8.560;2023-08-06T09:53:05;98887.00;;;21.41;100.00
31096;BME280;17749;51.962;8.560;2023-08-06T09:55:33;98887.78;;;21.60;100.00
31096;BME280;17749;51.962;8.560;2023-08-06T09:58:01;98891.66;;;22.00;100.00
31096;BME280;17749;51.962;8.560;2023-08-06T10:00:28;98894.81;;;22.21;100.00
31096;BME280;17749;51.962;8.560;2023-08-06T10:03:00;98885.69;;;21.80;100.00
31096;BME280;17749;51.962;8.560;2023-08-06T10:05:27;98889.72;;;21.41;100.00
31096;BME280;17749;51.962;8.560;2023-08-06T10:07:57;98890.19;;;21.19;100.00
31096;BME280;17749;51.962;8.560;2023-08-06T10:10:25;98893.84;;;20.84;100.00
31096;BME280;17749;51.962;8.560;2023-08-06T10:12:55;98881.34;;;20.65;100.00
31096;BME280;17749;51.962;8.560;2023-08-06T10:15:26;98886.38;;;20.60;100.00
31096;BME280;17749;51.962;8.560;2023-08-06T10:17:56;98882.19;;;20.65;100.00
31096;BME280;17749;51.962;8.560;2023-08-06T10:20:24;98878.47;;;20.66;100.00
31096;BME280;17749;51.962;8.560;2023-08-06T10:23:05;98879.22;;;20.76;100.00
31096;BME280;17749;51.962;8.560;2023-08-06T10:25:35;98885.41;;;20.69;100.00
31096;BME280;17749;51.962;8.560;2023-08-06T10:28:08;98878.91;;;20.62;100.00
31096;BME280;17749;51.962;8.560;2023-08-06T10:30:46;98880.69;;;20.53;100.00
31096;BME280;17749;51.962;8.560;2023-08-06T10:33:14;98880.66;;;20.35;100.00
31096;BME280;17749;51.962;8.560;2023-08-06T10:35:45;98890.50;;;20.36;100.00
31096;BME280;17749;51.962;8.560;2023-08-06T10:43:33;98872.56;;;20.53;100.00
31096;BME280;17749;51.962;8.560;2023-08-06T10:46:03;98871.66;;;20.44;100.00
31096;BME280;17749;51.962;8.560;2023-08-06T10:51:01;98869.03;;;20.52;100.00
31096;BME280;17749;51.962;8.560;2023-08-06T10:53:32;98865.63;;;20.50;100.00
31096;BME280;17749;51.962;8.560;2023-08-06T10:56:01;98878.63;;;20.65;100.00
31096;BME280;17749;51.962;8.560;2023-08-06T10:58:32;98867.81;;;20.65;100.00
31096;BME280;17749;51.962;8.560;2023-08-06T11:01:00;98869.66;;;20.64;100.00
31096;BME280;17749;51.962;8.560;2023-08-06T11:03:28;98877.28;;;20.51;100.00
31096;BME280;17749;51.962;8.560;2023-08-06T11:05:55;98874.16;;;20.55;100.00
31096;BME280;17749;51.962;8.560;2023-08-06T11:08:27;98868.19;;;20.70;100.00
31096;BME280;17749;51.962;8.560;2023-08-06T11:11:07;98871.03;;;20.86;100.00
31096;BME280;17749;51.962;8.560;2023-08-06T11:13:37;98869.75;;;20.98;100.00
31096;BME280;17749;51.962;8.560;2023-08-06T11:16:05;98862.69;;;21.06;100.00
31096;BME280;17749;51.962;8.560;2023-08-06T11:18:33;98857.03;;;21.17;100.00
31096;BME280;17749;51.962;8.560;2023-08-06T11:21:01;98854.56;;;21.32;100.00
31096;BME280;17749;51.962;8.560;2023-08-06T11:23:29;98861.66;;;21.51;100.00
31096;BME280;17749;51.962;8.560;2023-08-06T11:25:57;98864.50;;;21.41;100.00
31096;BME280;17749;51.962;8.560;2023-08-06T11:28:25;98862.78;;;21.40;100.00
31096;BME280;17749;51.962;8.560;2023-08-06T11:30:52;98868.06;;;21.23;100.00
31096;BME280;17749;51.962;8.560;2023-08-06T11:33:21;98868.81;;;21.08;100.00
31096;BME280;17749;51.962;8.560;2023-08-06T11:35:49;98861.59;;;21.16;100.00
31096;BME280;17749;51.962;8.560;2023-08-06T11:38:16;98857.28;;;21.06;100.00
31096;BME280;17749;51.962;8.560;2023-08-06T11:40:47;98854.16;;;20.92;100.00
31096;BME280;17749;51.962;8.560;2023-08-06T11:43:14;98845.13;;;20.84;100.00
31096;BME280;17749;51.962;8.560;2023-08-06T11:45:42;98852.34;;;21.01;100.00
31096;BME280;17749;51.962;8.560;2023-08-06T11:48:09;98852.66;;;21.24;100.00
31096;BME280;17749;51.962;8.560;2023-08-06T11:50:37;98852.56;;;21.08;100.00
31096;BME280;17749;51.962;8.560;2023-08-06T11:53:14;98847.22;;;21.16;100.00
31096;BME280;17749;51.962;8.560;2023-08-06T11:55:42;98852.34;;;21.27;100.00
31096;BME280;17749;51.962;8.560;2023-08-06T11:58:10;98842.81;;;21.41;100.00
31096;BME280;17749;51.962;8.560;2023-08-06T12:00:42;98837.41;;;21.83;100.00
31096;BME280;17749;51.962;8.560;2023-08-06T12:03:09;98833.13;;;22.23;100.00
31096;BME280;17749;51.962;8.560;2023-08-06T12:05:37;98830.63;;;22.30;100.00
31096;BME280;17749;51.962;8.560;2023-08-06T12:08:05;98824.16;;;22.47;100.00
31096;BME280;17749;51.962;8.560;2023-08-06T12:10:32;98817.72;;;22.73;100.00
31096;BME280;17749;51.962;8.560;2023-08-06T12:13:00;98822.31;;;22.81;100.00
31096;BME280;17749;51.962;8.560;2023-08-06T12:15:27;98822.63;;;22.86;100.00
31096;BME280;17749;51.962;8.560;2023-08-06T12:17:58;98816.53;;;23.00;100.00
31096;BME280;17749;51.962;8.560;2023-08-06T12:20:25;98823.31;;;22.96;100.00
31096;BME280;17749;51.962;8.560;2023-08-06T12:22:52;98818.41;;;23.00;100.00
31096;BME280;17749;51.962;8.560;2023-08-06T12:25:19;98817.81;;;23.29;100.00
31096;BME280;17749;51.962;8.560;2023-08-06T12:27:46;98808.06;;;23.03;100.00
31096;BME280;17749;51.962;8.560;2023-08-06T12:30:13;98811.78;;;22.94;100.00
31096;BME280;17749;51.962;8.560;2023-08-06T12:32:40;98811.44;;;22.89;100.00
31096;BME280;17749;51.962;8.560;2023-08-06T12:35:08;98810.44;;;23.06;100.00
31096;BME280;17749;51.962;8.560;2023-08-06T12:37:35;98804.97;;;23.14;100.00
31096;BME280;17749;51.962;8.560;2023-08-06T12:40:02;98810.09;;;22.93;100.00
31096;BME280;17749;51.962;8.560;2023-08-06T12:42:51;98805.38;;;22.62;100.00
31096;BME280;17749;51.962;8.560;2023-08-06T12:45:18;98802.13;;;22.50;100.00
31096;BME280;17749;51.962;8.560;2023-08-06T12:47:48;98808.22;;;22.28;100.00
31096;BME280;17749;51.962;8.560;2023-08-06T12:50:16;98814.09;;;21.99;100.00
31096;BME280;17749;51.962;8.560;2023-08-06T12:52:45;98811.66;;;21.87;100.00
31096;BME280;17749;51.962;8.560;2023-08-06T12:55:12;98815.69;;;21.67;100.00
31096;BME280;17749;51.962;8.560;2023-08-06T12:57:39;98813.97;;;21.66;100.00
31096;BME280;17749;51.962;8.560;2023-08-06T13:00:27;98823.13;;;21.65;100.00
31096;BME280;17749;51.962;8.560;2023-08-06T13:02:54;98818.06;;;21.70;100.00
31096;BME280;17749;51.962;8.560;2023-08-06T13:05:22;98823.31;;;21.72;100.00
31096;BME280;17749;51.962;8.560;2023-08-06T13:07:49;98822.78;;;21.68;100.00
31096;BME280;17749;51.962;8.560;2023-08-06T13:10:16;98827.53;;;21.74;100.00
31096;BME280;17749;51.962;8.560;2023-08-06T13:12:43;98837.41;;;21.83;100.00
31096;BME280;17749;51.962;8.560;2023-08-06T13:15:11;98838.63;;;21.89;100.00
31096;BME280;17749;51.962;8.560;2023-08-06T13:17:38;98834.22;;;21.88;100.00
31096;BME280;17749;51.962;8.560;2023-08-06T13:20:05;98835.09;;;21.54;100.00
31096;BME280;17749;51.962;8.560;2023-08-06T13:22:33;98833.41;;;21.27;100.00
31096;BME280;17749;51.962;8.560;2023-08-06T13:25:00;98826.34;;;21.08;100.00
31096;BME280;17749;51.962;8.560;2023-08-06T13:27:27;98818.97;;;20.92;100.00
31096;BME280;17749;51.962;8.560;2023-08-06T13:29:54;98830.47;;;20.68;100.00
31096;BME280;17749;51.962;8.560;2023-08-06T13:32:21;98838.56;;;20.50;100.00
31096;BME280;17749;51.962;8.560;2023-08-06T13:34:48;98841.38;;;20.23;100.00
31096;BME280;17749;51.962;8.560;2023-08-06T13:37:15;98841.50;;;20.03;100.00
31096;BME280;17749;51.962;8.560;2023-08-06T13:39:42;98842.66;;;20.01;100.00
31096;BME280;17749;51.962;8.560;2023-08-06T13:42:09;98854.00;;;19.86;100.00
31096;BME280;17749;51.962;8.560;2023-08-06T13:44:36;98860.19;;;19.59;100.00
31096;BME280;17749;51.962;8.560;2023-08-06T13:47:03;98856.97;;;19.46;100.00
31096;BME280;17749;51.962;8.560;2023-08-06T13:49:30;98860.00;;;19.33;100.00
31096;BME280;17749;51.962;8.560;2023-08-06T13:51:57;98869.38;;;19.39;100.00
31096;BME280;17749;51.962;8.560;2023-08-06T13:54:41;98856.06;;;19.27;100.00
31096;BME280;17749;51.962;8.560;2023-08-06T13:57:08;98859.75;;;19.26;100.00
31096;BME280;17749;51.962;8.560;2023-08-06T13:59:35;98855.66;;;19.22;100.00
31096;BME280;17749;51.962;8.560;2023-08-06T14:02:02;98874.59;;;19.13;100.00
31096;BME280;17749;51.962;8.560;2023-08-06T14:04:29;98882.69;;;19.13;100.00
31096;BME280;17749;51.962;8.560;2023-08-06T14:06:56;98883.72;;;18.92;100.00
31096;BME280;17749;51.962;8.560;2023-08-06T14:09:23;98895.34;;;18.93;100.00
31096;BME280;17749;51.962;8.560;2023-08-06T14:11:51;98918.91;;;18.91;100.00
31096;BME280;17749;51.962;8.560;2023-08-06T14:14:18;98924.00;;;18.74;100.00
31096;BME280;17749;51.962;8.560;2023-08-06T14:16:45;98922.28;;;18.54;100.00
31096;BME280;17749;51.962;8.560;2023-08-06T14:19:12;98923.41;;;18.32;100.00
31096;BME280;17749;51.962;8.560;2023-08-06T14:21:39;98918.84;;;18.23;100.00
31096;BME280;17749;51.962;8.560;2023-08-06T14:24:06;98935.41;;;18.18;100.00
31096;BME280;17749;51.962;8.560;2023-08-06T14:26:33;98948.22;;;17.85;100.00
31096;BME280;17749;51.962;8.560;2023-08-06T14:29:01;98956.59;;;17.61;100.00
31096;BME280;17749;51.962;8.560;2023-08-06T14:31:28;98962.97;;;17.39;100.00
31096;BME280;17749;51.962;8.560;2023-08-06T14:33:55;98969.75;;;17.34;100.00
31096;BME280;17749;51.962;8.560;2023-08-06T14:36:22;98972.78;;;17.19;100.00
31096;BME280;17749;51.962;8.560;2023-08-06T14:38:49;98980.00;;;17.19;100.00
31096;BME280;17749;51.962;8.560;2023-08-06T14:41:25;98981.25;;;17.15;100.00
31096;BME280;17749;51.962;8.560;2023-08-06T14:43:52;98982.16;;;17.04;100.00
31096;BME280;17749;51.962;8.560;2023-08-06T14:46:21;98987.91;;;16.99;100.00
31096;BME280;17749;51.962;8.560;2023-08-06T14:48:48;98988.19;;;16.96;100.00
31096;BME280;17749;51.962;8.560;2023-08-06T14:51:15;98987.91;;;16.99;100.00
31096;BME280;17749;51.962;8.560;2023-08-06T14:53:41;98999.50;;;17.00;100.00
31096;BME280;17749;51.962;8.560;2023-08-06T14:56:09;98986.47;;;16.95;100.00
31096;BME280;17749;51.962;8.560;2023-08-06T14:58:36;98986.72;;;16.92;100.00
31096;BME280;17749;51.962;8.560;2023-08-06T15:01:03;98986.47;;;16.95;100.00
31096;BME280;17749;51.962;8.560;2023-08-06T15:03:30;98993.47;;;16.86;100.00
31096;BME280;17749;51.962;8.560;2023-08-06T15:05:58;98998.00;;;16.86;100.00
31096;BME280;17749;51.962;8.560;2023-08-06T15:08:25;98996.34;;;16.95;100.00
31096;BME280;17749;51.962;8.560;2023-08-06T15:10:52;99012.16;;;16.88;100.00
31096;BME280;17749;51.962;8.560;2023-08-06T15:13:20;99015.06;;;16.96;100.00
31096;BME280;17749;51.962;8.560;2023-08-06T15:15:48;99017.88;;;16.95;100.00
31096;BME280;17749;51.962;8.560;2023-08-06T15:18:16;99016.81;;;16.86;100.00
31096;BME280;17749;51.962;8.560;2023-08-06T15:20:43;99032.59;;;16.68;100.00
31096;BME280;17749;51.962;8.560;2023-08-06T15:23:10;99033.44;;;16.69;100.00
31096;BME280;17749;51.962;8.560;2023-08-06T15:25:37;99022.19;;;16.75;100.00
31096;BME280;17749;51.962;8.560;2023-08-06T15:28:05;99027.59;;;16.63;100.00
31096;BME280;17749;51.962;8.560;2023-08-06T15:30:33;99023.69;;;16.68;100.00
31096;BME280;17749;51.962;8.560;2023-08-06T15:33:00;99015.84;;;16.76;100.00
31096;BME280;17749;51.962;8.560;2023-08-06T15:35:27;99015.09;;;16.74;100.00
31096;BME280;17749;51.962;8.560;2023-08-06T15:37:54;99009.28;;;16.80;100.00
31096;BME280;17749;51.962;8.560;2023-08-06T15:40:21;99015.00;;;16.75;100.00
31096;BME280;17749;51.962;8.560;2023-08-06T15:42:49;99032.97;;;16.75;100.00
31096;BME280;17749;51.962;8.560;2023-08-06T15:45:16;99044.72;;;16.62;100.00
31096;BME280;17749;51.962;8.560;2023-08-06T15:47:43;99050.97;;;16.52;100.00
31096;BME280;17749;51.962;8.560;2023-08-06T15:50:10;99064.16;;;16.55;100.00
31096;BME280;17749;51.962;8.560;2023-08-06T15:52:37;99065.75;;;16.46;100.00
31096;BME280;17749;51.962;8.560;2023-08-06T15:55:05;99077.72;;;16.53;100.00
31096;BME280;17749;51.962;8.560;2023-08-06T15:57:33;99082.84;;;16.56;100.00
31096;BME280;17749;51.962;8.560;2023-08-06T16:00:01;99094.19;;;16.60;100.00
31096;BME280;17749;51.962;8.560;2023-08-06T16:02:37;99102.25;;;16.60;100.00
31096;BME280;17749;51.962;8.560;2023-08-06T16:05:04;99108.25;;;16.52;100.00
31096;BME280;17749;51.962;8.560;2023-08-06T16:07:32;99107.78;;;16.36;100.00
31096;BME280;17749;51.962;8.560;2023-08-06T16:09:59;99110.94;;;16.41;100.00
31096;BME280;17749;51.962;8.560;2023-08-06T16:12:26;99108.63;;;16.36;100.00
31096;BME280;17749;51.962;8.560;2023-08-06T16:14:53;99104.72;;;16.40;100.00
31096;BME280;17749;51.962;8.560;2023-08-06T16:17:20;99099.94;;;16.44;100.00
31096;BME280;17749;51.962;8.560;2023-08-06T16:19:50;99093.59;;;16.45;100.00
31096;BME280;17749;51.962;8.560;2023-08-06T16:22:19;99094.81;;;16.41;100.00
31096;BME280;17749;51.962;8.560;2023-08-06T16:24:46;99090.19;;;16.32;100.00
31096;BME280;17749;51.962;8.560;2023-08-06T16:27:15;99088.72;;;16.28;100.00
31096;BME280;17749;51.962;8.560;2023-08-06T16:29:42;99082.50;;;16.27;100.00
31096;BME280;17749;51.962;8.560;2023-08-06T16:32:09;99081.41;;;16.30;100.00
31096;BME280;17749;51.962;8.560;2023-08-06T16:34:37;99073.34;;;16.30;100.00
31096;BME280;17749;51.962;8.560;2023-08-06T16:37:05;99076.50;;;16.24;100.00
31096;BME280;17749;51.962;8.560;2023-08-06T16:39:32;99068.22;;;16.15;100.00
31096;BME280;17749;51.962;8.560;2023-08-06T16:41:59;99075.78;;;16.10;100.00
31096;BME280;17749;51.962;8.560;2023-08-06T16:44:29;99079.31;;;15.99;100.00
31096;BME280;17749;51.962;8.560;2023-08-06T16:46:57;99078.97;;;15.93;100.00
31096;BME280;17749;51.962;8.560;2023-08-06T16:49:24;99085.66;;;15.98;100.00
31096;BME280;17749;51.962;8.560;2023-08-06T16:51:51;99090.66;;;16.03;100.00
31096;BME280;17749;51.962;8.560;2023-08-06T16:54:18;99102.28;;;16.04;100.00
31096;BME280;17749;51.962;8.560;2023-08-06T16:56:45;99101.41;;;16.03;100.00
31096;BME280;17749;51.962;8.560;2023-08-06T16:59:12;99096.91;;;16.04;100.00
31096;BME280;17749;51.962;8.560;2023-08-06T17:01:39;99099.69;;;16.02;100.00
31096;BME280;17749;51.962;8.560;2023-08-06T17:04:06;99096.28;;;16.00;100.00
31096;BME280;17749;51.962;8.560;2023-08-06T17:06:33;99093.72;;;15.98;100.00
31096;BME280;17749;51.962;8.560;2023-08-06T17:09:00;99100.19;;;15.96;100.00
31096;BME280;17749;51.962;8.560;2023-08-06T17:11:30;99108.25;;;15.96;100.00
31096;BME280;17749;51.962;8.560;2023-08-06T17:13:57;99122.38;;;15.98;100.00
31096;BME280;17749;51.962;8.560;2023-08-06T17:16:25;99127.03;;;15.96;100.00
31096;BME280;17749;51.962;8.560;2023-08-06T17:18:52;99133.50;;;15.93;100.00
31096;BME280;17749;51.962;8.560;2023-08-06T17:21:19;99133.84;;;15.89;100.00
31096;BME280;17749;51.962;8.560;2023-08-06T17:23:47;99162.91;;;15.95;100.00
31096;BME280;17749;51.962;8.560;2023-08-06T17:26:14;99187.81;;;15.97;100.00
31096;BME280;17749;51.962;8.560;2023-08-06T17:28:41;99187.56;;;16.00;100.00
31096;BME280;17749;51.962;8.560;2023-08-06T17:31:08;99211.31;;;15.82;100.00
31096;BME280;17749;51.962;8.560;2023-08-06T17:33:35;99189.09;;;15.56;100.00
31096;BME280;17749;51.962;8.560;2023-08-06T17:36:02;99191.50;;;15.48;100.00
31096;BME280;17749;51.962;8.560;2023-08-06T17:38:28;99175.13;;;15.40;100.00
31096;BME280;17749;51.962;8.560;2023-08-06T17:40:55;99187.50;;;15.29;100.00
31096;BME280;17749;51.962;8.560;2023-08-06T17:43:24;99195.69;;;15.28;100.00
31096;BME280;17749;51.962;8.560;2023-08-06T17:45:51;99172.09;;;15.20;100.00
31096;BME280;17749;51.962;8.560;2023-08-06T17:48:18;99167.19;;;15.14;100.00
31096;BME280;17749;51.962;8.560;2023-08-06T17:50:45;99162.03;;;15.11;100.00
31096;BME280;17749;51.962;8.560;2023-08-06T17:53:13;99165.28;;;15.03;100.00
31096;BME280;17749;51.962;8.560;2023-08-06T17:55:40;99162.59;;;15.03;100.00
31096;BME280;17749;51.962;8.560;2023-08-06T17:58:07;99188.03;;;14.98;100.00
31096;BME280;17749;51.962;8.560;2023-08-06T18:00:34;99182.69;;;14.98;100.00
31096;BME280;17749;51.962;8.560;2023-08-06T18:03:01;99180.53;;;15.03;100.00